Terminal Aerodrome Forecast
Issued by NWS

Home | Current Version | Previous Version | Text Only | Print | Product List | Glossary On
Versions: 1 2 3 4 5 6 7 8 9 10 11 12 13
945
FTAK31 PAJN 271131
TAFAWG
TAF
PAWG 271131Z 2712/2812 11005KT P6SM VCSH SCT025 OVC040
     FM272000 12006KT 4SM -RA BR FEW005 BKN015 OVC030
     FM280100 10006KT 4SM RA BR FEW005 OVC015
     FM280700 21006KT P6SM -RA FEW009 SCT015 OVC025
      AMD LTD TO CLD VIS AND WIND 2712/2715=

USA.gov is the U.S. government's official web portal to all federal, state and local government web resources and services.